createdAt,value
2018-11-29T00:05:15.975Z,1.76
2018-11-29T00:11:10.987Z,1.53
2018-11-29T00:17:06.020Z,1.87
2018-11-29T00:23:01.017Z,1.28
2018-11-29T00:28:55.985Z,2.19
2018-11-29T00:34:51.026Z,1.87
2018-11-29T00:40:45.990Z,1.91
2018-11-29T00:46:41.029Z,1.82
2018-11-29T00:52:36.088Z,2.23
2018-11-29T00:58:31.004Z,1.79
2018-11-29T01:04:26.017Z,2.12
2018-11-29T01:10:21.006Z,2.03
2018-11-29T01:16:16.029Z,2.04
2018-11-29T01:22:11.023Z,1.7
2018-11-29T01:28:06.102Z,1.7
2018-11-29T01:34:01.030Z,1.88
2018-11-29T01:39:56.073Z,2.17
2018-11-29T01:45:51.039Z,1.52
2018-11-29T01:51:46.085Z,1.38
2018-11-29T01:57:41.076Z,1.53
2018-11-29T02:03:36.038Z,1.83
2018-11-29T02:09:31.050Z,2.09
2018-11-29T02:15:26.062Z,1.53
2018-11-29T02:21:21.648Z,1.96
2018-11-29T02:27:16.062Z,1.85
2018-11-29T02:33:11.100Z,1.77
2018-11-29T02:39:06.069Z,1.73
2018-11-29T02:45:01.074Z,2.01
2018-11-29T02:50:56.089Z,1.57
2018-11-29T02:56:51.076Z,1.88
2018-11-29T03:02:46.109Z,1.85
2018-11-29T03:08:41.118Z,1.83
2018-11-29T03:14:36.076Z,1.93
2018-11-29T03:20:31.116Z,1.71
2018-11-29T03:26:26.091Z,1.74
2018-11-29T03:32:21.119Z,1.95
2018-11-29T03:38:16.117Z,1.94
2018-11-29T03:44:11.112Z,1.6
2018-11-29T03:50:06.110Z,2.03
2018-11-29T03:56:01.146Z,1.74
2018-11-29T04:01:56.109Z,2.1
2018-11-29T04:07:51.120Z,2.08
2018-11-29T04:13:46.152Z,1.68
2018-11-29T04:19:41.135Z,1.9
2018-11-29T04:25:36.139Z,2.06
2018-11-29T04:31:31.119Z,2.27
2018-11-29T04:37:26.123Z,2.43
2018-11-29T04:43:21.158Z,2.42
2018-11-29T04:49:16.165Z,2.85
2018-11-29T04:55:11.176Z,2.96
2018-11-29T05:01:06.142Z,3.31
2018-11-29T05:07:01.219Z,3.2
2018-11-29T05:12:56.278Z,3.46
2018-11-29T05:18:51.162Z,3.12
2018-11-29T05:24:46.159Z,3.34
2018-11-29T05:30:41.165Z,3.29
2018-11-29T05:36:36.165Z,3.23
2018-11-29T05:42:31.174Z,3.62
2018-11-29T05:48:26.156Z,3.24
2018-11-29T05:54:21.210Z,3.71
2018-11-29T06:00:16.166Z,2.92
2018-11-29T06:06:11.182Z,3.2
2018-11-29T06:12:06.259Z,3.77
2018-11-29T06:18:01.221Z,4.13
2018-11-29T06:23:56.185Z,4.37
2018-11-29T06:29:51.218Z,4.37
2018-11-29T06:35:46.209Z,4.05
2018-11-29T06:41:41.246Z,3.77
2018-11-29T06:47:36.211Z,3.81
2018-11-29T06:53:31.218Z,4.82
2018-11-29T06:59:26.236Z,4.09
2018-11-29T07:05:21.214Z,4.49
2018-11-29T07:11:16.218Z,4.49
2018-11-29T07:17:11.207Z,3.99
2018-11-29T07:23:06.202Z,5.39
2018-11-29T07:29:01.225Z,4.27
2018-11-29T07:34:56.234Z,4.21
2018-11-29T07:40:51.260Z,4.3
2018-11-29T07:46:46.250Z,4.24
2018-11-29T07:52:41.206Z,4.42
2018-11-29T07:58:36.229Z,4.19
2018-11-29T08:04:31.220Z,4.3
2018-11-29T08:10:26.281Z,5.51
2018-11-29T08:16:21.253Z,5.97
2018-11-29T08:22:16.242Z,5.24
2018-11-29T08:28:11.255Z,5.21
2018-11-29T08:34:06.231Z,7.82
2018-11-29T08:40:01.308Z,11.82
2018-11-29T08:45:56.261Z,9.24
2018-11-29T08:51:51.297Z,6.86
2018-11-29T08:57:46.245Z,5.13
2018-11-29T09:03:41.254Z,5.11
2018-11-29T09:09:36.259Z,5.46
2018-11-29T09:15:31.263Z,6.02
2018-11-29T09:21:26.257Z,5.51
2018-11-29T09:27:21.294Z,5.7
2018-11-29T09:33:16.280Z,5.63
2018-11-29T09:39:11.310Z,5.71
2018-11-29T09:45:06.279Z,6.86
2018-11-29T09:51:01.298Z,5.97
2018-11-29T09:56:56.292Z,7.03
2018-11-29T10:02:51.282Z,5.76
2018-11-29T10:08:46.305Z,5.29
2018-11-29T10:14:41.333Z,5.5
2018-11-29T10:20:36.304Z,5.68
2018-11-29T10:26:31.343Z,5.86
2018-11-29T10:32:26.305Z,5.82
2018-11-29T10:38:21.314Z,6.57
2018-11-29T10:44:16.339Z,6.81
2018-11-29T10:50:11.338Z,6.67
2018-11-29T10:56:06.380Z,7.74
2018-11-29T11:02:01.354Z,7.65
2018-11-29T11:07:56.352Z,6.55
2018-11-29T11:13:51.398Z,6.94
2018-11-29T11:19:46.348Z,8.13
2018-11-29T11:31:36.385Z,6.13
2018-11-29T11:31:36.390Z,5.76
2018-11-29T11:37:31.373Z,6.66
2018-11-29T11:43:26.363Z,5.66
2018-11-29T11:49:21.418Z,6.36
2018-11-29T11:55:19.052Z,6.13
2018-11-29T12:01:11.383Z,6.03
2018-11-29T12:07:06.412Z,6.6
2018-11-29T12:13:01.411Z,5.48
2018-11-29T12:19:02.033Z,6.29
2018-11-29T12:24:51.430Z,5.63
2018-11-29T12:30:46.393Z,6.01
2018-11-29T12:36:41.409Z,5.53
2018-11-29T12:42:36.393Z,5.79
2018-11-29T12:48:31.392Z,5.45
2018-11-29T12:54:26.452Z,5.54
2018-11-29T13:00:21.420Z,5.87
2018-11-29T13:06:16.423Z,5.89
2018-11-29T13:12:11.454Z,6.04
2018-11-29T13:18:06.412Z,6.44
2018-11-29T13:24:01.517Z,6.26
2018-11-29T13:29:56.429Z,6.09
2018-11-29T13:35:51.442Z,6.19
2018-11-29T13:41:46.443Z,5.97
2018-11-29T13:47:41.467Z,6.49
2018-11-29T13:53:36.463Z,6.46
2018-11-29T13:59:31.488Z,6.01
2018-11-29T14:05:26.443Z,5.82
2018-11-29T14:11:21.463Z,5.74
2018-11-29T14:17:16.444Z,5.57
2018-11-29T14:23:11.504Z,5.87
2018-11-29T14:29:06.479Z,5.98
2018-11-29T14:35:01.475Z,5.77
2018-11-29T14:40:56.463Z,5.5
2018-11-29T14:46:51.472Z,6.76
2018-11-29T14:52:46.477Z,5.54
2018-11-29T14:58:41.451Z,5.72
2018-11-29T15:04:36.449Z,6.35
2018-11-29T15:10:31.463Z,6.8
2018-11-29T15:16:26.475Z,6.88
2018-11-29T15:22:21.486Z,7.13
2018-11-29T15:28:16.482Z,8.94
2018-11-29T15:34:11.490Z,6.4
2018-11-29T15:40:06.474Z,6.81
2018-11-29T15:46:01.500Z,7.96
2018-11-29T15:51:56.505Z,5.92
2018-11-29T15:57:51.541Z,7.17
2018-11-29T16:03:46.505Z,5.96
2018-11-29T16:09:41.517Z,6.13
2018-11-29T16:15:36.611Z,7.51
2018-11-29T16:21:31.518Z,7.2
2018-11-29T16:27:26.521Z,6.79
2018-11-29T16:33:21.541Z,10.48
2018-11-29T16:39:16.575Z,8.9
2018-11-29T16:45:11.527Z,10.11
2018-11-29T16:51:06.557Z,10.45
2018-11-29T16:57:01.591Z,12.41
2018-11-29T17:02:56.575Z,10.09
2018-11-29T17:08:51.551Z,10.79
2018-11-29T17:14:46.553Z,14.49
2018-11-29T17:20:41.582Z,14.06
2018-11-29T17:26:36.556Z,15.54
2018-11-29T17:32:31.564Z,15.3
2018-11-29T17:38:26.566Z,13.44
2018-11-29T17:44:21.603Z,18.23
2018-11-29T17:50:16.555Z,17.3
2018-11-29T17:56:11.598Z,16.87
2018-11-29T18:02:06.578Z,17.86
2018-11-29T18:08:01.589Z,17.38
2018-11-29T18:13:56.556Z,16.7
2018-11-29T18:19:51.572Z,16.98
2018-11-29T18:25:46.587Z,20.55
2018-11-29T18:31:41.732Z,17.47
2018-11-29T18:37:36.652Z,15.99
2018-11-29T18:43:31.595Z,13.97
2018-11-29T18:49:26.627Z,13.67
2018-11-29T18:55:21.595Z,14.66
2018-11-29T19:01:16.593Z,15.11
2018-11-29T19:07:11.630Z,16.5
2018-11-29T19:13:06.600Z,16.24
2018-11-29T19:19:01.619Z,16.73
2018-11-29T19:24:56.611Z,18.71
2018-11-29T19:30:51.633Z,18.13
2018-11-29T19:36:46.611Z,15.94
2018-11-29T19:42:41.647Z,18.74
2018-11-29T19:48:36.697Z,19.06
2018-11-29T19:54:31.644Z,19.71
2018-11-29T20:00:26.657Z,20.5
2018-11-29T20:06:21.637Z,18.36
2018-11-29T20:12:16.648Z,17.25
2018-11-29T20:18:11.636Z,18.3
2018-11-29T20:24:06.651Z,17.45
2018-11-29T20:30:01.671Z,20.32
2018-11-29T20:35:56.681Z,17.96
2018-11-29T20:41:51.690Z,16.09
2018-11-29T20:47:46.654Z,14.88
2018-11-29T20:53:41.675Z,12.31
2018-11-29T20:59:36.674Z,13.32
2018-11-29T21:05:31.698Z,14.62
2018-11-29T21:11:26.686Z,11.57
2018-11-29T21:17:21.734Z,13.34
2018-11-29T21:23:16.721Z,15.73
2018-11-29T21:29:11.706Z,15.4
2018-11-29T21:35:06.718Z,16.41
2018-11-29T21:41:01.678Z,14.7
2018-11-29T21:46:56.692Z,20.18
2018-11-29T21:52:51.699Z,16.02
2018-11-29T21:58:46.766Z,14.98
2018-11-29T22:04:41.724Z,16.53
2018-11-29T22:10:36.761Z,15.32
2018-11-29T22:16:31.706Z,16.21
2018-11-29T22:22:28.378Z,14.94
2018-11-29T22:28:21.747Z,15.17
2018-11-29T22:34:16.721Z,13.09
2018-11-29T22:40:11.735Z,12.1
2018-11-29T22:46:06.735Z,13.55
2018-11-29T22:52:01.725Z,13.37
2018-11-29T22:57:56.765Z,14.21
2018-11-29T23:03:52.006Z,12.21
2018-11-29T23:09:47.942Z,10.39
2018-11-29T23:15:41.933Z,10.74
2018-11-29T23:21:37.951Z,11.41
2018-11-29T23:27:31.773Z,11.96
2018-11-29T23:33:26.763Z,11.24
2018-11-29T23:39:21.751Z,10.41
2018-11-29T23:45:16.772Z,11.18
2018-11-29T23:51:11.745Z,9.79
2018-11-29T23:57:06.757Z,9.87
